Time;durP1;ratioP1;P1;durP2;ratioP2;P2;SDS_P1;SDS_P2;PMS_P1;PMS_P2;Temp;Humidity;BMP_temperature;BMP_pressure;BME280_temperature;BME280_humidity;BME280_pressure;Samples;Min_cycle;Max_cycle;Signal;HPM_P1;HPM_P2
2023/11/11 00:04:46;;;;;;;27.10;19.70;;;;;;;6.71;84.12;98469.60;219778;1257;140356;-71
2023/11/11 00:09:50;;;;;;;19.60;15.20;;;;;;;6.65;83.85;98473.04;218771;1257;140019;-71
2023/11/11 00:14:53;;;;;;;23.40;16.90;;;;;;;6.54;83.85;98470.58;220638;1256;141642;-72
2023/11/11 00:19:59;;;;;;;25.50;18.20;;;;;;;6.45;83.98;98471.84;218948;1256;140555;-71
2023/11/11 00:25:03;;;;;;;21.90;18.30;;;;;;;6.40;84.32;98465.73;220211;1256;140692;-70
2023/11/11 00:30:07;;;;;;;28.90;17.90;;;;;;;6.37;84.42;98465.10;220270;1256;140543;-70
2023/11/11 00:35:11;;;;;;;30.50;17.30;;;;;;;6.34;84.26;98469.11;220373;1257;140204;-69
2023/11/11 00:40:15;;;;;;;31.10;18.90;;;;;;;6.30;84.30;98468.21;219672;1256;140697;-73
2023/11/11 00:45:19;;;;;;;22.90;16.30;;;;;;;6.31;84.66;98456.64;220517;1256;140624;-71
2023/11/11 00:50:22;;;;;;;25.20;16.50;;;;;;;6.31;84.54;98458.16;220384;1257;142427;-74
2023/11/11 00:55:25;;;;;;;31.20;18.30;;;;;;;6.25;84.23;98461.59;220308;1257;140134;-70
2023/11/11 01:00:29;;;;;;;30.10;17.90;;;;;;;6.23;84.71;98459.06;220402;1256;140756;-71
2023/11/11 01:05:32;;;;;;;28.80;16.50;;;;;;;6.20;84.68;98462.77;220460;1259;140752;-69
2023/11/11 01:10:37;;;;;;;27.80;18.70;;;;;;;6.10;84.64;98460.60;220447;1256;139631;-72
2023/11/11 01:15:41;;;;;;;23.90;14.40;;;;;;;6.05;84.36;98455.63;219827;1256;489620;-68
2023/11/11 01:20:45;;;;;;;25.50;15.40;;;;;;;6.00;84.47;98457.13;220197;1258;141479;-69
2023/11/11 01:25:48;;;;;;;30.20;17.50;;;;;;;5.96;85.02;98459.80;220251;1257;140962;-70
2023/11/11 01:30:52;;;;;;;22.30;14.80;;;;;;;5.97;85.41;98454.70;220275;1256;141470;-69
2023/11/11 01:35:55;;;;;;;26.60;16.60;;;;;;;5.99;85.32;98448.27;220210;1256;140502;-70
2023/11/11 01:40:58;;;;;;;20.60;14.20;;;;;;;6.01;85.30;98445.45;220325;1256;140560;-71
2023/11/11 01:46:02;;;;;;;23.20;14.10;;;;;;;5.94;84.82;98444.27;220148;1258;141430;-69
2023/11/11 01:51:04;;;;;;;29.90;18.00;;;;;;;5.91;85.70;98440.66;220352;1256;140614;-69
2023/11/11 01:56:10;;;;;;;26.60;15.70;;;;;;;5.94;85.78;98441.77;220150;1256;141527;-67
2023/11/11 02:01:12;;;;;;;23.40;15.60;;;;;;;5.90;85.41;98437.66;220124;1256;140383;-69
2023/11/11 02:06:16;;;;;;;37.80;19.80;;;;;;;5.83;85.74;98439.57;217420;1259;141288;-68
2023/11/11 02:11:20;;;;;;;26.20;18.00;;;;;;;5.87;86.06;98439.64;220022;1256;140708;-71
2023/11/11 02:16:24;;;;;;;32.80;18.60;;;;;;;5.94;86.57;98434.54;220126;1257;140589;-70
2023/11/11 02:21:31;;;;;;;27.60;17.60;;;;;;;5.98;86.45;98431.69;220286;1257;140354;-70
2023/11/11 02:26:33;;;;;;;35.30;19.10;;;;;;;5.99;86.35;98429.64;217732;1260;140498;-69
2023/11/11 02:31:36;;;;;;;35.90;22.70;;;;;;;6.03;86.87;98424.60;218534;1256;140693;-70
2023/11/11 02:36:40;;;;;;;39.50;21.60;;;;;;;6.04;86.79;98416.37;219679;1256;140303;-71
2023/11/11 02:41:55;;;;;;;30.50;20.70;;;;;;;6.03;87.21;98421.05;220287;1257;141026;-70
2023/11/11 02:46:58;;;;;;;27.10;19.20;;;;;;;6.01;86.94;98420.90;220302;1257;140340;-70
2023/11/11 02:52:00;;;;;;;31.20;19.40;;;;;;;6.04;87.14;98414.03;220193;1256;140894;-72
2023/11/11 02:57:04;;;;;;;34.90;23.00;;;;;;;6.09;86.80;98413.07;220428;1256;139834;-72
2023/11/11 03:02:07;;;;;;;30.10;21.20;;;;;;;6.11;87.02;98407.06;220126;1256;142227;-70
2023/11/11 03:07:10;;;;;;;31.30;22.20;;;;;;;6.13;87.53;98400.67;220184;1257;140874;-70
2023/11/11 03:12:13;;;;;;;31.90;21.40;;;;;;;6.12;86.99;98400.98;220017;1256;140004;-71
2023/11/11 03:17:16;;;;;;;32.40;21.10;;;;;;;6.12;87.01;98394.00;220151;1256;140152;-69
2023/11/11 03:22:20;;;;;;;35.20;21.40;;;;;;;6.14;86.97;98398.89;220250;1256;142309;-68
2023/11/11 03:27:22;;;;;;;34.30;20.40;;;;;;;6.16;87.32;98398.13;220310;1257;141100;-69
2023/11/11 03:32:25;;;;;;;26.00;17.20;;;;;;;6.17;87.25;98392.39;220077;1260;140677;-70
2023/11/11 03:37:28;;;;;;;32.60;21.40;;;;;;;6.14;87.55;98388.30;220231;1256;140131;-71
2023/11/11 03:42:31;;;;;;;31.60;21.40;;;;;;;6.13;87.13;98382.68;220190;1260;141744;-68
2023/11/11 03:47:38;;;;;;;35.40;20.60;;;;;;;6.13;87.43;98379.14;220293;1258;140122;-71
2023/11/11 03:52:41;;;;;;;31.60;24.70;;;;;;;6.16;87.90;98373.64;220298;1260;140298;-70
2023/11/11 03:57:43;;;;;;;42.90;28.40;;;;;;;6.18;87.59;98376.58;219714;1256;141448;-69
2023/11/11 04:02:47;;;;;;;37.70;26.00;;;;;;;6.18;87.82;98375.89;219175;1260;140460;-69
2023/11/11 04:07:50;;;;;;;34.30;23.30;;;;;;;6.16;87.57;98372.63;219958;1259;140262;-69
2023/11/11 04:12:54;;;;;;;31.70;22.40;;;;;;;6.15;88.01;98372.45;219972;1257;139773;-69
2023/11/11 04:17:57;;;;;;;34.50;23.30;;;;;;;6.13;87.41;98360.36;217102;1258;140629;-70
2023/11/11 04:23:00;;;;;;;36.20;21.40;;;;;;;6.11;87.78;98349.98;220111;1256;142255;-69
2023/11/11 04:28:03;;;;;;;35.80;22.30;;;;;;;6.08;87.65;98345.33;220467;1256;140730;-69
2023/11/11 04:33:06;;;;;;;33.60;21.20;;;;;;;6.06;87.73;98342.44;220585;1259;142407;-71
2023/11/11 04:38:09;;;;;;;24.30;17.50;;;;;;;6.02;87.98;98341.73;220481;1257;141122;-70
2023/11/11 04:43:11;;;;;;;26.20;19.20;;;;;;;6.00;87.90;98340.37;217356;1260;141298;-69
2023/11/11 04:48:14;;;;;;;31.50;22.10;;;;;;;5.96;87.75;98340.41;220214;1260;141707;-70
2023/11/11 04:53:19;;;;;;;31.50;21.90;;;;;;;5.98;87.96;98342.73;220209;1260;140099;-70
2023/11/11 04:58:23;;;;;;;32.60;21.60;;;;;;;6.02;88.49;98346.59;220262;1256;140995;-69
2023/11/11 05:03:29;;;;;;;28.20;20.10;;;;;;;6.02;87.98;98355.02;220187;1256;140615;-69
2023/11/11 05:08:33;;;;;;;31.60;22.40;;;;;;;5.99;88.43;98364.57;220242;1257;140112;-69
2023/11/11 05:13:41;;;;;;;38.90;20.20;;;;;;;6.04;88.65;98372.45;220066;1257;140377;-69
2023/11/11 05:18:44;;;;;;;29.50;20.70;;;;;;;6.09;88.86;98371.33;220056;1256;140536;-70
2023/11/11 05:23:52;;;;;;;62.50;24.60;;;;;;;6.17;88.93;98368.09;220512;1257;139610;-70
2023/11/11 05:28:58;;;;;;;35.70;20.80;;;;;;;6.23;89.30;98369.00;220489;1257;140751;-69
2023/11/11 05:34:01;;;;;;;39.80;21.80;;;;;;;6.29;89.25;98372.38;220089;1257;140551;-69
2023/11/11 05:39:04;;;;;;;33.80;23.50;;;;;;;6.31;88.86;98369.46;220221;1257;140397;-69
2023/11/11 05:44:08;;;;;;;34.80;21.20;;;;;;;6.31;88.95;98366.29;218418;1260;139396;-69
2023/11/11 05:49:11;;;;;;;29.00;20.30;;;;;;;6.27;88.85;98365.52;220223;1257;141606;-69
2023/11/11 05:54:14;;;;;;;32.10;21.40;;;;;;;6.23;88.90;98370.48;220128;1256;141525;-70
2023/11/11 05:59:17;;;;;;;27.10;21.70;;;;;;;6.23;88.82;98370.85;218068;1257;140017;-69
2023/11/11 06:04:19;;;;;;;39.70;21.00;;;;;;;6.21;88.88;98380.77;219429;1257;140462;-69
2023/11/11 06:09:24;;;;;;;28.10;18.30;;;;;;;6.13;88.74;98385.71;220250;1257;140029;-69
2023/11/11 06:14:27;;;;;;;26.40;19.20;;;;;;;6.07;88.37;98393.24;220509;1257;141110;-69
2023/11/11 06:19:30;;;;;;;24.60;17.40;;;;;;;6.04;88.09;98399.05;220442;1256;140936;-70
2023/11/11 06:24:33;;;;;;;28.00;17.50;;;;;;;6.01;88.40;98403.23;218623;1257;140266;-68
2023/11/11 06:29:37;;;;;;;29.00;16.70;;;;;;;6.00;88.72;98411.58;220526;1256;140432;-69
2023/11/11 06:34:41;;;;;;;33.10;21.10;;;;;;;6.04;88.92;98414.19;218184;1257;140936;-69
2023/11/11 06:39:44;;;;;;;27.90;19.90;;;;;;;6.08;89.17;98416.34;219672;1257;140586;-70
2023/11/11 06:44:47;;;;;;;26.30;18.60;;;;;;;6.14;88.93;98419.21;220118;1255;140057;-70
2023/11/11 06:49:50;;;;;;;48.40;26.80;;;;;;;6.20;89.30;98416.84;219654;1257;142244;-70
2023/11/11 06:54:53;;;;;;;36.20;25.20;;;;;;;6.25;89.40;98413.17;220510;1256;140153;-71
2023/11/11 06:59:57;;;;;;;30.20;22.10;;;;;;;6.28;89.72;98410.42;220591;1255;139945;-71
2023/11/11 07:05:04;;;;;;;28.80;20.10;;;;;;;6.34;89.49;98413.05;219190;1257;140331;-70
2023/11/11 07:10:11;;;;;;;33.80;20.20;;;;;;;6.41;89.47;98416.62;218030;1259;140141;-71
2023/11/11 07:15:15;;;;;;;36.40;21.60;;;;;;;6.49;89.64;98418.84;220336;1254;140979;-71
2023/11/11 07:20:18;;;;;;;34.40;23.30;;;;;;;6.58;89.77;98417.64;220249;1256;140166;-71
2023/11/11 07:25:24;;;;;;;34.70;23.00;;;;;;;6.71;90.00;98415.83;219961;1257;140366;-70
2023/11/11 07:30:26;;;;;;;35.80;24.40;;;;;;;6.84;89.70;98415.01;220272;1256;139800;-70
2023/11/11 07:35:31;;;;;;;37.60;25.10;;;;;;;6.99;90.10;98414.33;220019;1257;140535;-70
2023/11/11 07:40:34;;;;;;;44.60;29.60;;;;;;;7.16;90.12;98414.55;220183;1256;141396;-70
2023/11/11 07:45:36;;;;;;;37.20;27.40;;;;;;;7.30;89.90;98413.70;220311;1256;140938;-69
2023/11/11 07:50:39;;;;;;;34.90;20.30;;;;;;;7.45;89.78;98415.41;220022;1256;140487;-69
2023/11/11 07:55:42;;;;;;;30.00;21.00;;;;;;;7.57;89.78;98417.85;220064;1256;140600;-69
2023/11/11 08:00:45;;;;;;;31.90;24.70;;;;;;;7.73;89.84;98416.33;220280;1256;141107;-70
2023/11/11 08:05:49;;;;;;;33.60;22.20;;;;;;;7.89;89.49;98419.06;220122;1257;141881;-70
2023/11/11 08:10:52;;;;;;;27.70;21.10;;;;;;;8.03;89.34;98419.23;220204;1256;140895;-70
2023/11/11 08:15:55;;;;;;;34.80;21.70;;;;;;;8.17;89.15;98422.95;217974;1256;142493;-69
2023/11/11 08:20:59;;;;;;;31.90;21.60;;;;;;;8.26;88.93;98423.61;220297;1256;140516;-69
2023/11/11 08:26:06;;;;;;;27.10;20.40;;;;;;;8.36;88.84;98428.83;218893;1257;141119;-69
2023/11/11 08:31:09;;;;;;;29.60;20.10;;;;;;;8.42;88.39;98435.38;220240;1256;140239;-69
2023/11/11 08:36:11;;;;;;;32.40;22.70;;;;;;;8.49;88.22;98440.43;220515;1255;140554;-70
2023/11/11 08:41:14;;;;;;;33.50;22.60;;;;;;;8.56;88.26;98443.89;220539;1256;141541;-70
2023/11/11 08:46:17;;;;;;;42.40;23.50;;;;;;;8.65;88.05;98448.27;219307;1256;140480;-70
2023/11/11 08:51:20;;;;;;;33.10;18.80;;;;;;;8.77;87.91;98445.50;220514;1257;140228;-69
2023/11/11 08:56:24;;;;;;;31.80;22.90;;;;;;;8.91;87.62;98441.27;220457;1255;139880;-70
2023/11/11 09:01:27;;;;;;;28.90;21.20;;;;;;;9.08;87.31;98433.48;220557;1256;143315;-70
2023/11/11 09:06:31;;;;;;;25.30;19.10;;;;;;;9.23;86.95;98433.77;220327;1256;140720;-70
2023/11/11 09:11:37;;;;;;;26.40;18.90;;;;;;;9.36;87.02;98431.93;219045;1256;141661;-69
2023/11/11 09:16:40;;;;;;;26.60;19.80;;;;;;;9.47;86.35;98424.06;220479;1255;140674;-70
2023/11/11 09:21:42;;;;;;;25.90;18.50;;;;;;;9.50;85.91;98426.61;220556;1256;140497;-70
2023/11/11 09:26:46;;;;;;;28.00;18.70;;;;;;;9.52;85.60;98423.54;220086;1256;141214;-70
2023/11/11 09:31:51;;;;;;;25.40;18.90;;;;;;;9.62;85.82;98413.48;220301;1256;141827;-70
2023/11/11 09:36:55;;;;;;;22.10;16.80;;;;;;;9.72;85.72;98411.02;220377;1255;141987;-70
2023/11/11 09:42:00;;;;;;;30.90;18.70;;;;;;;9.79;85.35;98412.30;220372;1256;140321;-69
2023/11/11 09:47:07;;;;;;;18.00;15.80;;;;;;;9.85;85.22;98410.56;220301;1256;141241;-69
2023/11/11 09:52:13;;;;;;;25.40;17.40;;;;;;;9.88;84.88;98403.65;220344;1255;140869;-70
2023/11/11 09:57:20;;;;;;;23.30;15.30;;;;;;;9.96;84.71;98398.58;220428;1255;140333;-70
2023/11/11 10:02:26;;;;;;;26.00;17.90;;;;;;;10.06;84.85;98396.89;220366;1256;140267;-70
2023/11/11 10:07:29;;;;;;;26.30;18.60;;;;;;;10.17;84.20;98391.25;218576;1256;140245;-69
2023/11/11 10:12:35;;;;;;;24.20;17.80;;;;;;;10.27;84.15;98382.35;218080;1256;140414;-69
2023/11/11 10:17:39;;;;;;;28.00;16.60;;;;;;;10.35;84.22;98370.00;220262;1256;141039;-69
2023/11/11 10:22:47;;;;;;;25.90;16.70;;;;;;;10.39;83.51;98366.42;220124;1256;142715;-70
2023/11/11 10:27:53;;;;;;;22.90;18.10;;;;;;;10.38;83.31;98362.85;220138;1256;141229;-70
2023/11/11 10:32:58;;;;;;;24.10;15.90;;;;;;;10.35;83.00;98355.63;217737;1256;141221;-70
2023/11/11 10:38:02;;;;;;;17.10;12.20;;;;;;;10.39;83.03;98348.74;220056;1257;141476;-70
2023/11/11 10:43:06;;;;;;;18.60;11.60;;;;;;;10.53;82.59;98340.52;220173;1256;140625;-71
2023/11/11 10:48:10;;;;;;;11.90;8.50;;;;;;;10.57;81.83;98333.55;219747;1256;141794;-71
2023/11/11 10:53:15;;;;;;;9.70;7.20;;;;;;;10.76;81.34;98330.36;220188;1256;141528;-70
2023/11/11 10:58:21;;;;;;;11.50;8.10;;;;;;;10.88;80.63;98336.79;217448;1256;140856;-71
2023/11/11 11:03:24;;;;;;;13.00;7.60;;;;;;;10.96;80.08;98336.46;219310;1257;140070;-69
2023/11/11 11:09:12;;;;;;;13.30;5.90;;;;;;;11.09;79.81;98339.98;220254;1256;140117;-69
2023/11/11 11:14:26;;;;;;;6.80;4.80;;;;;;;11.21;78.82;98343.35;219732;1255;139867;-70
2023/11/11 11:19:29;;;;;;;9.60;6.70;;;;;;;11.22;77.97;98348.15;220479;1255;140157;-70
2023/11/11 11:24:32;;;;;;;10.20;5.80;;;;;;;11.34;77.72;98353.80;220327;1256;140464;-70
2023/11/11 11:29:35;;;;;;;9.60;6.60;;;;;;;11.43;76.98;98353.67;219964;1256;140634;-69
2023/11/11 11:34:41;;;;;;;12.10;8.80;;;;;;;11.32;76.54;98348.86;220387;1255;141399;-69
2023/11/11 11:40:17;;;;;;;7.30;5.50;;;;;;;11.36;76.41;98337.94;220203;1256;163817;-70
2023/11/11 11:45:32;;;;;;;8.20;6.60;;;;;;;11.44;75.76;98342.98;220266;1256;140482;-71
2023/11/11 11:50:36;;;;;;;9.60;5.70;;;;;;;11.42;75.24;98335.52;220401;1257;140562;-69
2023/11/11 11:55:40;;;;;;;6.00;5.20;;;;;;;11.40;75.04;98338.20;220318;1255;140359;-71
2023/11/11 12:00:45;;;;;;;6.60;4.90;;;;;;;11.28;74.33;98341.29;220450;1256;140874;-69
2023/11/11 12:05:51;;;;;;;5.60;4.00;;;;;;;11.26;74.30;98329.31;220409;1256;140598;-69
2023/11/11 12:10:58;;;;;;;6.20;3.40;;;;;;;11.18;73.44;98330.56;220071;1255;140388;-69
2023/11/11 12:16:01;;;;;;;6.10;3.50;;;;;;;11.16;73.30;98330.77;219910;1256;140649;-68
2023/11/11 12:21:04;;;;;;;4.60;3.80;;;;;;;11.11;73.16;98324.66;218763;1256;140625;-69
2023/11/11 12:26:09;;;;;;;4.50;3.50;;;;;;;11.00;72.60;98327.16;220098;1256;140750;-70
2023/11/11 12:31:13;;;;;;;10.30;4.40;;;;;;;10.93;72.42;98331.50;220147;1256;142489;-69
2023/11/11 12:36:17;;;;;;;3.30;3.00;;;;;;;10.85;72.58;98334.81;220207;1258;140447;-68
2023/11/11 12:41:22;;;;;;;7.40;6.00;;;;;;;10.83;72.99;98337.22;218944;1256;141102;-68
2023/11/11 12:46:29;;;;;;;7.50;5.10;;;;;;;10.84;72.87;98338.30;220112;1256;140866;-69
2023/11/11 12:51:35;;;;;;;8.60;5.90;;;;;;;10.83;72.93;98337.00;220217;1256;140454;-68
2023/11/11 12:56:55;;;;;;;12.00;7.70;;;;;;;10.77;72.58;98342.08;219247;1256;140550;-69
2023/11/11 13:02:05;;;;;;;;;;;;;;;10.70;72.79;98342.20;220326;1256;140450;-69
2023/11/11 13:07:23;;;;;;;8.90;7.30;;;;;;;10.58;73.24;98346.59;220354;1255;126569;-68
2023/11/11 13:12:26;;;;;;;10.20;7.90;;;;;;;10.56;73.54;98350.02;220037;1256;141071;-69
2023/11/11 13:17:30;;;;;;;12.20;8.70;;;;;;;10.61;73.61;98352.89;219992;1259;167462;-68
2023/11/11 13:22:35;;;;;;;11.90;8.30;;;;;;;10.60;73.55;98354.00;220004;1256;141115;-68
2023/11/11 13:27:39;;;;;;;16.40;10.00;;;;;;;10.54;73.88;98350.75;220464;1256;140764;-67
2023/11/11 13:32:41;;;;;;;13.60;11.30;;;;;;;10.52;74.13;98353.32;220246;1255;140518;-67
2023/11/11 13:37:46;;;;;;;12.70;10.30;;;;;;;10.51;74.20;98355.98;220292;1256;140809;-67
2023/11/11 13:42:50;;;;;;;11.50;9.70;;;;;;;10.41;74.20;98362.91;220167;1256;141127;-67
2023/11/11 13:47:58;;;;;;;14.70;10.80;;;;;;;10.35;74.56;98362.86;220187;1256;140543;-67
2023/11/11 13:53:08;;;;;;;16.80;11.40;;;;;;;10.29;74.46;98364.35;220416;1256;140561;-69
2023/11/11 13:58:20;;;;;;;13.30;10.40;;;;;;;10.21;74.89;98362.20;220392;1255;140318;-67
2023/11/11 14:03:26;;;;;;;18.50;12.60;;;;;;;10.13;74.86;98365.42;220327;1255;141279;-68
2023/11/11 14:08:32;;;;;;;20.60;11.60;;;;;;;10.03;75.15;98370.74;220118;1257;140032;-66
2023/11/11 14:13:39;;;;;;;;;;;;;;;9.92;75.36;98379.29;219356;1256;143330;-74
2023/11/11 14:18:43;;;;;;;24.00;13.20;;;;;;;9.75;75.61;98379.52;220553;1256;126373;-71
2023/11/11 14:23:47;;;;;;;14.20;10.10;;;;;;;9.63;75.72;98380.81;218793;1257;141140;-70
2023/11/11 14:28:54;;;;;;;14.80;11.80;;;;;;;9.52;75.83;98382.90;219315;1256;141806;-73
2023/11/11 14:33:57;;;;;;;29.30;12.30;;;;;;;9.39;76.14;98386.90;220178;1256;140714;-70
2023/11/11 14:39:09;;;;;;;15.50;11.50;;;;;;;9.25;76.28;98393.73;219225;1256;140296;-69
2023/11/11 14:44:12;;;;;;;14.30;10.60;;;;;;;9.13;76.49;98394.60;220237;1255;140494;-72
2023/11/11 14:49:16;;;;;;;18.10;11.10;;;;;;;8.99;76.72;98404.81;219742;1256;139811;-71
2023/11/11 14:54:21;;;;;;;15.70;11.20;;;;;;;8.81;76.71;98414.42;220092;1258;140553;-72
2023/11/11 14:59:32;;;;;;;13.90;9.70;;;;;;;8.64;76.83;98416.90;219052;1256;141768;-72
2023/11/11 15:04:38;;;;;;;14.30;10.70;;;;;;;8.47;77.03;98415.14;218793;1256;141634;-71
2023/11/11 15:09:44;;;;;;;14.50;9.30;;;;;;;8.30;77.31;98422.11;219697;1256;140054;-70
2023/11/11 15:14:49;;;;;;;11.10;9.70;;;;;;;8.13;77.68;98422.75;220165;1256;139216;-69
2023/11/11 15:19:56;;;;;;;17.20;11.50;;;;;;;7.98;77.79;98422.66;220416;1259;141060;-70
2023/11/11 15:25:01;;;;;;;15.80;11.20;;;;;;;7.87;77.71;98428.05;219707;1257;140658;-69
2023/11/11 15:30:07;;;;;;;17.40;11.10;;;;;;;7.73;77.86;98432.30;219739;1258;140822;-73
2023/11/11 15:35:12;;;;;;;14.50;10.60;;;;;;;7.56;77.88;98435.34;220147;1257;140667;-69
2023/11/11 15:40:19;;;;;;;18.60;13.90;;;;;;;7.40;77.90;98434.02;220412;1256;140234;-70
2023/11/11 15:45:22;;;;;;;16.90;12.10;;;;;;;7.27;78.24;98435.23;220436;1256;140345;-71
2023/11/11 15:50:25;;;;;;;26.50;11.90;;;;;;;7.12;77.97;98444.02;220528;1256;140325;-71
2023/11/11 15:55:31;;;;;;;19.70;12.60;;;;;;;6.96;78.23;98447.63;220468;1256;140612;-70
2023/11/11 16:00:36;;;;;;;18.10;12.10;;;;;;;6.83;78.70;98454.84;220505;1256;141669;-70
2023/11/11 16:05:41;;;;;;;22.50;12.00;;;;;;;6.71;78.24;98459.37;220422;1256;140396;-72
2023/11/11 16:10:45;;;;;;;17.40;13.60;;;;;;;6.60;79.06;98466.39;220277;1259;139742;-72
2023/11/11 16:15:50;;;;;;;22.80;14.80;;;;;;;6.48;78.85;98472.36;220439;1256;140882;-73
2023/11/11 16:20:54;;;;;;;21.40;14.20;;;;;;;6.35;78.77;98475.81;220185;1256;140454;-73
2023/11/11 16:26:01;;;;;;;25.90;15.90;;;;;;;6.23;79.14;98480.77;218887;1256;167900;-71
2023/11/11 16:31:08;;;;;;;26.50;16.00;;;;;;;6.13;79.33;98480.74;220256;1255;141737;-71
2023/11/11 16:36:13;;;;;;;25.30;17.30;;;;;;;6.04;79.67;98485.94;220154;1257;141547;-71
2023/11/11 16:41:19;;;;;;;24.20;16.30;;;;;;;5.99;80.01;98488.90;220089;1256;140896;-72
2023/11/11 16:46:31;;;;;;;24.00;16.00;;;;;;;5.90;79.63;98489.06;220114;1256;140852;-72
2023/11/11 16:51:35;;;;;;;28.90;15.50;;;;;;;5.80;79.83;98492.42;220201;1256;141077;-72
2023/11/11 16:56:37;;;;;;;26.10;19.90;;;;;;;5.71;80.04;98492.51;217936;1260;140984;-70
2023/11/11 17:01:41;;;;;;;29.30;19.80;;;;;;;5.62;80.24;98494.73;220067;1256;140959;-68
2023/11/11 17:06:44;;;;;;;29.60;17.20;;;;;;;5.51;79.92;98495.25;220255;1257;140122;-72
2023/11/11 17:11:47;;;;;;;29.30;19.00;;;;;;;5.35;79.88;98490.63;220243;1256;140294;-71
2023/11/11 17:16:50;;;;;;;26.40;17.50;;;;;;;5.23;80.04;98496.86;219995;1256;141638;-71
2023/11/11 17:21:53;;;;;;;28.90;19.10;;;;;;;5.13;80.35;98502.08;220168;1258;141191;-69
2023/11/11 17:26:59;;;;;;;23.20;15.30;;;;;;;5.07;80.21;98498.35;220144;1256;140303;-71
2023/11/11 17:32:04;;;;;;;29.10;18.00;;;;;;;4.97;80.39;98494.94;220150;1256;141478;-71
2023/11/11 17:37:11;;;;;;;33.20;20.10;;;;;;;4.87;80.17;98500.89;220350;1256;141107;-70
2023/11/11 17:42:13;;;;;;;31.00;22.60;;;;;;;4.76;80.14;98502.69;217394;1257;141458;-68
2023/11/11 17:47:18;;;;;;;34.30;20.80;;;;;;;4.66;80.20;98507.14;220126;1256;140790;-69
2023/11/11 17:52:20;;;;;;;39.10;19.20;;;;;;;4.56;80.28;98515.42;220026;1259;140486;-69
2023/11/11 17:57:22;;;;;;;22.80;16.60;;;;;;;4.44;80.30;98516.65;220083;1256;140238;-69
2023/11/11 18:02:27;;;;;;;19.60;13.10;;;;;;;4.30;80.44;98514.29;220066;1256;140295;-70
2023/11/11 18:07:29;;;;;;;24.60;15.10;;;;;;;4.15;80.10;98526.23;220216;1257;140601;-74
2023/11/11 18:12:34;;;;;;;43.30;19.10;;;;;;;4.05;80.41;98529.33;220104;1256;141651;-74
2023/11/11 18:17:41;;;;;;;24.20;17.40;;;;;;;3.99;80.84;98537.72;220293;1256;141166;-73
2023/11/11 18:22:44;;;;;;;32.80;19.20;;;;;;;3.92;80.58;98538.30;220162;1256;140418;-72
2023/11/11 18:27:46;;;;;;;30.10;20.70;;;;;;;3.85;80.68;98542.96;218156;1256;141104;-72
2023/11/11 18:32:49;;;;;;;33.40;21.30;;;;;;;3.82;81.04;98542.19;220118;1258;141094;-72
2023/11/11 18:37:55;;;;;;;30.30;21.20;;;;;;;3.80;81.22;98534.52;220009;1258;140869;-71
2023/11/11 18:42:57;;;;;;;26.20;19.30;;;;;;;3.75;81.47;98535.86;218413;1257;140370;-73
2023/11/11 18:47:59;;;;;;;28.80;17.10;;;;;;;3.61;80.83;98537.27;218740;1259;140603;-72
2023/11/11 18:53:02;;;;;;;24.20;15.20;;;;;;;3.44;80.99;98536.11;220130;1256;141343;-72
2023/11/11 18:58:04;;;;;;;22.90;15.70;;;;;;;3.32;80.95;98535.92;220027;1259;140800;-68
2023/11/11 19:03:08;;;;;;;24.70;15.00;;;;;;;3.23;81.18;98540.64;220335;1256;140140;-67
2023/11/11 19:08:10;;;;;;;27.10;17.80;;;;;;;3.15;80.90;98546.87;220070;1257;140313;-68
2023/11/11 19:13:18;;;;;;;25.70;18.60;;;;;;;3.04;80.93;98547.73;219760;1256;140045;-68
2023/11/11 19:18:20;;;;;;;28.50;19.50;;;;;;;3.00;81.77;98554.63;217555;1256;140837;-67
2023/11/11 19:23:22;;;;;;;32.40;20.40;;;;;;;2.99;81.92;98552.12;219575;1256;154730;-68
2023/11/11 19:28:27;;;;;;;34.10;18.60;;;;;;;2.89;81.66;98557.48;220030;1256;140266;-70
2023/11/11 19:33:29;;;;;;;31.30;21.00;;;;;;;2.79;81.65;98559.17;220446;1257;141038;-68
2023/11/11 19:38:35;;;;;;;36.20;21.20;;;;;;;2.70;81.78;98557.07;220337;1256;140779;-69
2023/11/11 19:43:38;;;;;;;39.30;25.40;;;;;;;2.66;81.90;98557.77;220435;1256;140461;-69
2023/11/11 19:48:44;;;;;;;49.90;27.50;;;;;;;2.62;81.87;98563.42;220204;1259;140852;-70
2023/11/11 19:53:48;;;;;;;48.10;29.50;;;;;;;2.61;82.29;98564.23;220084;1256;139740;-70
2023/11/11 19:58:50;;;;;;;52.10;27.40;;;;;;;2.61;82.41;98561.89;220278;1257;140639;-70
2023/11/11 20:03:54;;;;;;;29.60;21.30;;;;;;;2.60;82.51;98564.04;220436;1257;139951;-68
2023/11/11 20:09:00;;;;;;;36.10;20.00;;;;;;;2.59;82.46;98559.15;220194;1259;140749;-69
2023/11/11 20:14:03;;;;;;;37.20;20.60;;;;;;;2.54;82.53;98568.00;220070;1257;140429;-69
2023/11/11 20:19:07;;;;;;;39.10;20.30;;;;;;;2.52;82.73;98565.27;220122;1256;141280;-68
2023/11/11 20:24:14;;;;;;;32.70;18.50;;;;;;;2.40;82.29;98569.09;220189;1256;141059;-69
2023/11/11 20:29:21;;;;;;;38.50;19.10;;;;;;;2.25;82.12;98567.83;220103;1256;140646;-69
2023/11/11 20:34:45;;;;;;;40.90;20.70;;;;;;;2.15;82.39;98569.42;220202;1260;141332;-69
2023/11/11 20:39:51;;;;;;;47.30;22.50;;;;;;;2.10;82.63;98576.57;218533;1260;140132;-69
2023/11/11 20:44:53;;;;;;;44.30;22.80;;;;;;;2.11;82.79;98589.46;219181;1257;140059;-71
2023/11/11 20:49:55;;;;;;;37.10;21.30;;;;;;;2.10;82.97;98584.38;220299;1256;140488;-69
2023/11/11 20:55:00;;;;;;;34.40;22.70;;;;;;;2.05;83.03;98589.73;219195;1260;139888;-70
2023/11/11 21:00:05;;;;;;;37.40;20.70;;;;;;;2.05;83.41;98583.05;220292;1257;140676;-70
2023/11/11 21:05:13;;;;;;;38.70;21.10;;;;;;;2.06;83.37;98577.48;218289;1258;139875;-72
2023/11/11 21:10:17;;;;;;;37.90;21.60;;;;;;;2.07;83.46;98575.73;220473;1259;140552;-72
2023/11/11 21:15:21;;;;;;;37.90;24.60;;;;;;;2.08;83.84;98578.64;219367;1257;140103;-70
2023/11/11 21:20:25;;;;;;;52.50;27.70;;;;;;;2.08;83.87;98562.98;220346;1259;140183;-73
2023/11/11 21:25:27;;;;;;;36.50;21.50;;;;;;;2.07;83.79;98561.58;219998;1259;140736;-68
2023/11/11 21:30:30;;;;;;;48.60;23.70;;;;;;;1.97;82.96;98566.50;220428;1258;140052;-71
2023/11/11 21:35:32;;;;;;;41.70;25.50;;;;;;;1.85;83.28;98566.49;220295;1257;141399;-70
2023/11/11 21:40:36;;;;;;;58.60;30.70;;;;;;;1.79;83.35;98563.45;220227;1257;140441;-70
2023/11/11 21:45:40;;;;;;;56.10;29.80;;;;;;;1.83;83.86;98554.59;220328;1260;139975;-70
2023/11/11 21:50:44;;;;;;;45.10;28.80;;;;;;;1.83;83.58;98549.25;219767;1260;140627;-70
2023/11/11 21:55:48;;;;;;;47.50;28.00;;;;;;;1.78;83.79;98549.23;220295;1258;140186;-70
2023/11/11 22:00:51;;;;;;;77.10;39.20;;;;;;;1.81;84.33;98555.33;220236;1257;140627;-70
2023/11/11 22:05:55;;;;;;;73.00;38.70;;;;;;;1.87;84.63;98550.84;220033;1256;141723;-69
2023/11/11 22:10:58;;;;;;;59.30;32.00;;;;;;;1.91;84.66;98550.66;220147;1258;141837;-68
2023/11/11 22:16:02;;;;;;;76.80;35.40;;;;;;;1.83;84.05;98547.67;220294;1257;140320;-67
2023/11/11 22:21:06;;;;;;;74.60;35.00;;;;;;;1.73;84.22;98551.70;220212;1257;139982;-68
2023/11/11 22:26:16;;;;;;;85.90;36.80;;;;;;;1.68;84.43;98554.62;219595;1258;140924;-67
2023/11/11 22:31:19;;;;;;;74.50;35.60;;;;;;;1.66;84.28;98557.13;220473;1257;141972;-68
2023/11/11 22:36:24;;;;;;;65.70;33.20;;;;;;;1.60;84.25;98558.96;220391;1256;140779;-68
2023/11/11 22:41:29;;;;;;;69.20;32.40;;;;;;;1.55;84.53;98566.66;219335;1257;140323;-68
2023/11/11 22:46:33;;;;;;;49.20;28.10;;;;;;;1.50;84.03;98572.86;219290;1257;140265;-67
2023/11/11 22:51:36;;;;;;;54.20;32.50;;;;;;;1.50;84.78;98576.65;220357;1257;140437;-70
2023/11/11 22:56:39;;;;;;;56.80;32.30;;;;;;;1.59;85.30;98579.57;220334;1257;140580;-70
2023/11/11 23:01:44;;;;;;;60.40;30.20;;;;;;;1.74;85.73;98577.97;220577;1257;140823;-70
2023/11/11 23:06:47;;;;;;;79.00;32.50;;;;;;;1.91;86.42;98578.32;219402;1257;140880;-69